createdAt,value
2022-11-16T00:02:06.796Z,52.60
2022-11-16T00:04:33.329Z,53.50
2022-11-16T00:07:02.598Z,52.67
2022-11-16T00:09:31.848Z,51.30
2022-11-16T00:12:04.754Z,51.85
2022-11-16T00:14:33.882Z,52.85
2022-11-16T00:17:01.146Z,51.78
2022-11-16T00:19:28.118Z,51.03
2022-11-16T00:21:54.864Z,51.50
2022-11-16T00:24:23.256Z,54.08
2022-11-16T00:26:50.648Z,51.97
2022-11-16T00:29:23.041Z,52.78
2022-11-16T00:31:50.044Z,51.47
2022-11-16T00:34:16.942Z,55.33
2022-11-16T00:36:43.808Z,50.35
2022-11-16T00:39:12.416Z,51.97
2022-11-16T00:41:39.148Z,52.85
2022-11-16T00:44:05.609Z,53.13
2022-11-16T00:46:32.126Z,50.28
2022-11-16T00:48:58.539Z,49.92
2022-11-16T00:51:24.960Z,52.50
2022-11-16T00:53:51.476Z,51.72
2022-11-16T00:56:17.971Z,54.10
2022-11-16T00:58:44.374Z,51.92
2022-11-16T01:01:12.210Z,51.72
2022-11-16T01:03:39.380Z,54.58
2022-11-16T01:06:08.604Z,52.25
2022-11-16T01:08:38.259Z,39.90
2022-11-16T01:11:24.820Z,51.75
2022-11-16T01:13:51.253Z,53.05
2022-11-16T01:16:20.142Z,53.10
2022-11-16T01:18:51.787Z,52.70
2022-11-16T01:21:19.287Z,52.58
2022-11-16T01:23:45.791Z,52.13
2022-11-16T01:26:12.268Z,53.58
2022-11-16T01:28:40.576Z,53.08
2022-11-16T01:31:08.950Z,52.60
2022-11-16T01:33:37.048Z,50.67
2022-11-16T01:36:10.606Z,52.92
2022-11-16T01:38:37.351Z,51.78
2022-11-16T01:41:04.087Z,52.13
2022-11-16T01:43:50.113Z,50.25
2022-11-16T01:46:16.552Z,50.97
2022-11-16T01:48:43.200Z,52.20
2022-11-16T01:51:09.939Z,51.72
2022-11-16T01:53:37.480Z,53.78
2022-11-16T01:56:05.091Z,50.67
2022-11-16T01:58:53.957Z,51.35
2022-11-16T02:01:24.258Z,49.95
2022-11-16T02:03:55.018Z,53.38
2022-11-16T02:06:27.698Z,50.13
2022-11-16T02:09:43.339Z,49.55
2022-11-16T02:12:37.969Z,50.50
2022-11-16T02:15:25.562Z,50.22
2022-11-16T02:18:46.880Z,51.45
2022-11-16T02:21:38.953Z,51.28
2022-11-16T02:24:31.307Z,49.03
2022-11-16T02:27:29.010Z,50.08
2022-11-16T02:29:56.606Z,53.15
2022-11-16T02:32:34.095Z,49.90
2022-11-16T02:35:03.471Z,50.15
2022-11-16T02:37:34.655Z,52.95
2022-11-16T02:42:34.878Z,50.50
2022-11-16T02:45:07.949Z,50.45
2022-11-16T02:47:36.913Z,50.53
2022-11-16T02:50:18.756Z,49.17
2022-11-16T02:52:45.641Z,48.85
2022-11-16T02:55:12.697Z,48.65
2022-11-16T02:58:00.813Z,47.60
2022-11-16T03:00:55.271Z,44.53
2022-11-16T03:03:41.253Z,47.30
2022-11-16T03:06:14.013Z,47.03
2022-11-16T03:09:02.170Z,45.83
2022-11-16T03:11:52.533Z,45.65
2022-11-16T03:14:22.755Z,44.92
2022-11-16T03:16:55.699Z,47.07
2022-11-16T03:19:37.323Z,44.38
2022-11-16T03:22:12.390Z,47.10
2022-11-16T03:24:39.614Z,43.70
2022-11-16T03:27:27.397Z,45.58
2022-11-16T03:30:06.033Z,46.13
2022-11-16T03:32:50.868Z,43.67
2022-11-16T03:35:24.745Z,47.83
2022-11-16T03:40:22.267Z,46.22
2022-11-16T03:42:50.528Z,44.78
2022-11-16T03:45:18.842Z,46.67
2022-11-16T03:47:46.001Z,45.08
2022-11-16T03:50:12.715Z,47.65
2022-11-16T03:52:40.027Z,47.10
2022-11-16T03:55:07.327Z,47.17
2022-11-16T03:57:34.726Z,48.30
2022-11-16T04:00:01.291Z,47.28
2022-11-16T04:02:29.335Z,47.42
2022-11-16T04:05:16.532Z,47.40
2022-11-16T04:08:02.199Z,50.47
2022-11-16T04:10:47.325Z,47.20
2022-11-16T04:13:33.931Z,47.30
2022-11-16T04:16:19.257Z,48.70
2022-11-16T04:19:04.524Z,50.47
2022-11-16T04:21:57.805Z,50.08
2022-11-16T04:24:32.109Z,52.10
2022-11-16T04:27:22.329Z,53.00
2022-11-16T04:29:49.069Z,54.85
2022-11-16T04:32:34.693Z,57.20
2022-11-16T04:35:19.708Z,57.80
2022-11-16T04:37:49.101Z,57.65
2022-11-16T04:40:22.940Z,60.92
2022-11-16T04:42:54.635Z,61.50
2022-11-16T04:45:41.420Z,59.83
2022-11-16T04:48:10.678Z,63.28
2022-11-16T04:50:38.765Z,62.83
2022-11-16T04:53:07.400Z,59.80
2022-11-16T04:55:41.717Z,65.05
2022-11-16T04:58:08.372Z,63.10
2022-11-16T05:00:34.932Z,66.55
2022-11-16T05:03:04.295Z,64.13
2022-11-16T05:05:30.851Z,66.38
2022-11-16T05:07:58.923Z,67.78
2022-11-16T05:10:28.722Z,64.65
2022-11-16T05:12:55.732Z,68.70
2022-11-16T05:15:23.256Z,64.32
2022-11-16T05:17:51.174Z,68.55
2022-11-16T05:20:40.174Z,65.22
2022-11-16T05:23:27.405Z,62.90
2022-11-16T05:25:54.857Z,62.92
2022-11-16T05:28:22.000Z,69.70
2022-11-16T05:30:48.552Z,64.32
2022-11-16T05:33:19.372Z,61.70
2022-11-16T05:35:46.021Z,64.72
2022-11-16T05:38:13.774Z,65.13
2022-11-16T05:40:44.325Z,69.40
2022-11-16T05:43:10.770Z,60.40
2022-11-16T05:46:28.213Z,63.25
2022-11-16T05:48:57.356Z,65.18
2022-11-16T05:51:24.691Z,70.30
2022-11-16T05:53:52.781Z,66.43
2022-11-16T05:56:22.190Z,66.75
2022-11-16T05:58:49.430Z,67.93
2022-11-16T06:01:15.962Z,69.28
2022-11-16T06:03:42.696Z,66.00
2022-11-16T06:06:09.199Z,67.15
2022-11-16T06:08:36.662Z,67.10
2022-11-16T06:11:08.225Z,67.40
2022-11-16T06:13:36.529Z,66.95
2022-11-16T06:16:04.085Z,67.18
2022-11-16T06:18:32.570Z,66.55
2022-11-16T06:20:59.245Z,69.10
2022-11-16T06:23:25.753Z,66.00
2022-11-16T06:25:55.058Z,67.63
2022-11-16T06:28:24.103Z,66.55
2022-11-16T06:30:50.947Z,68.85
2022-11-16T06:33:18.028Z,68.25
2022-11-16T06:35:45.128Z,68.72
2022-11-16T06:38:18.683Z,66.18
2022-11-16T06:40:52.340Z,66.68
2022-11-16T06:43:20.220Z,65.53
2022-11-16T06:45:51.723Z,65.18
2022-11-16T06:48:19.176Z,63.72
2022-11-16T06:50:50.750Z,62.60
2022-11-16T06:53:19.252Z,62.45
2022-11-16T06:55:47.433Z,63.20
2022-11-16T06:58:13.988Z,66.40
2022-11-16T07:00:41.822Z,64.55
2022-11-16T07:03:09.720Z,64.15
2022-11-16T07:05:40.020Z,64.93
2022-11-16T07:08:09.934Z,64.13
2022-11-16T07:10:38.033Z,64.57
2022-11-16T07:13:06.134Z,63.72
2022-11-16T07:15:35.239Z,63.97
2022-11-16T07:18:07.293Z,61.70
2022-11-16T07:20:37.529Z,63.55
2022-11-16T07:23:04.239Z,63.10
2022-11-16T07:25:33.336Z,64.53
2022-11-16T07:28:00.624Z,63.80
2022-11-16T07:30:27.096Z,67.95
2022-11-16T07:33:08.841Z,64.57
2022-11-16T07:36:08.061Z,65.25
2022-11-16T07:38:34.848Z,63.05
2022-11-16T07:41:06.261Z,63.85
2022-11-16T07:43:36.012Z,65.75
2022-11-16T07:49:07.050Z,65.47
2022-11-16T07:51:47.953Z,63.88
2022-11-16T07:54:33.790Z,65.03
2022-11-16T07:57:00.245Z,67.43
2022-11-16T07:59:28.343Z,67.85
2022-11-16T08:01:59.153Z,66.47
2022-11-16T08:04:26.426Z,65.88
2022-11-16T08:06:52.984Z,64.25
2022-11-16T08:09:20.928Z,67.00
2022-11-16T08:11:48.845Z,63.28
2022-11-16T08:14:15.688Z,64.45
2022-11-16T08:16:42.408Z,64.15
2022-11-16T08:19:13.054Z,62.83
2022-11-16T08:21:39.500Z,64.68
2022-11-16T08:24:06.971Z,64.65
2022-11-16T08:26:37.503Z,63.70
2022-11-16T08:31:38.463Z,62.88
2022-11-16T08:34:08.840Z,66.13
2022-11-16T08:36:38.910Z,65.57
2022-11-16T08:39:05.794Z,67.80
2022-11-16T08:41:35.737Z,69.65
2022-11-16T08:44:02.269Z,65.45
2022-11-16T08:46:30.418Z,65.10
2022-11-16T08:49:09.731Z,66.65
2022-11-16T08:51:36.152Z,69.70
2022-11-16T08:54:05.260Z,70.25
2022-11-16T08:56:33.384Z,73.15
2022-11-16T08:58:59.781Z,71.80
2022-11-16T09:01:29.833Z,67.05
2022-11-16T09:03:56.671Z,69.40
2022-11-16T09:06:25.295Z,66.00
2022-11-16T09:08:52.122Z,64.07
2022-11-16T09:11:21.674Z,63.45
2022-11-16T09:13:50.602Z,64.05
2022-11-16T09:16:17.940Z,65.22
2022-11-16T09:18:47.042Z,63.22
2022-11-16T09:21:18.895Z,64.13
2022-11-16T09:23:46.258Z,65.18
2022-11-16T09:26:13.730Z,64.45
2022-11-16T09:28:40.243Z,61.47
2022-11-16T09:31:06.669Z,57.95
2022-11-16T09:33:34.179Z,58.95
2022-11-16T09:36:07.089Z,59.58
2022-11-16T09:38:54.423Z,56.95
2022-11-16T09:41:51.105Z,56.40
2022-11-16T09:44:55.940Z,55.97
2022-11-16T09:47:38.848Z,54.55
2022-11-16T09:50:07.133Z,52.45
2022-11-16T09:52:43.156Z,53.10
2022-11-16T09:55:36.702Z,49.78
2022-11-16T09:58:11.711Z,51.72
2022-11-16T10:00:43.708Z,50.88
2022-11-16T10:03:13.450Z,48.45
2022-11-16T10:05:53.603Z,46.00
2022-11-16T10:08:32.959Z,44.17
2022-11-16T10:11:09.999Z,42.42
2022-11-16T10:14:04.013Z,43.50
2022-11-16T10:16:56.928Z,41.10
2022-11-16T10:19:42.037Z,42.08
2022-11-16T10:22:29.906Z,36.40
2022-11-16T10:24:58.614Z,33.65
2022-11-16T10:27:44.701Z,33.13
2022-11-16T10:30:21.830Z,30.23
2022-11-16T10:33:08.083Z,30.17
2022-11-16T10:35:41.499Z,29.80
2022-11-16T10:38:14.078Z,27.77
2022-11-16T10:40:41.298Z,27.08
2022-11-16T10:43:14.341Z,26.30
2022-11-16T10:45:50.986Z,26.92
2022-11-16T10:48:37.206Z,28.10
2022-11-16T10:51:05.090Z,27.58
2022-11-16T10:53:40.557Z,27.45
2022-11-16T10:56:27.700Z,29.20
2022-11-16T10:59:06.351Z,29.88
2022-11-16T11:01:39.448Z,28.92
2022-11-16T11:04:29.359Z,29.70
2022-11-16T11:07:00.855Z,30.30
2022-11-16T11:09:30.980Z,31.35
2022-11-16T11:12:37.884Z,33.33
2022-11-16T11:15:07.336Z,31.10
2022-11-16T11:17:36.002Z,30.38
2022-11-16T11:20:05.506Z,30.92
2022-11-16T11:22:34.971Z,28.98
2022-11-16T11:25:03.498Z,29.52
2022-11-16T11:27:34.673Z,32.22
2022-11-16T11:30:01.691Z,29.25
2022-11-16T11:32:34.475Z,30.00
2022-11-16T11:35:02.855Z,28.55
2022-11-16T11:37:33.945Z,28.13
2022-11-16T11:42:41.239Z,28.10
2022-11-16T11:45:13.815Z,26.55
2022-11-16T11:47:58.483Z,28.50
2022-11-16T11:50:52.819Z,29.58
2022-11-16T11:53:38.556Z,28.95
2022-11-16T11:56:05.520Z,28.02
2022-11-16T11:58:36.979Z,28.67
2022-11-16T12:01:27.874Z,28.63
2022-11-16T12:04:32.532Z,29.55
2022-11-16T12:07:06.046Z,27.67
2022-11-16T12:09:42.738Z,27.70
2022-11-16T12:12:15.171Z,26.13
2022-11-16T12:15:02.268Z,26.75
2022-11-16T12:17:48.420Z,28.02
2022-11-16T12:20:42.008Z,26.67
2022-11-16T12:23:41.720Z,26.60
2022-11-16T12:26:35.657Z,26.50
2022-11-16T12:29:23.350Z,26.73
2022-11-16T12:32:22.924Z,27.02
2022-11-16T12:35:11.441Z,28.83
2022-11-16T12:38:03.403Z,28.35
2022-11-16T12:40:35.536Z,28.42
2022-11-16T12:43:21.058Z,30.17
2022-11-16T12:46:01.489Z,28.15
2022-11-16T12:48:40.970Z,29.77
2022-11-16T12:51:38.126Z,27.60
2022-11-16T12:54:28.886Z,30.50
2022-11-16T12:57:04.731Z,28.40
2022-11-16T13:00:07.475Z,30.02
2022-11-16T13:02:50.098Z,28.95
2022-11-16T13:05:21.546Z,30.17
2022-11-16T13:07:57.405Z,29.92
2022-11-16T13:10:33.457Z,28.42
2022-11-16T13:15:51.827Z,30.53
2022-11-16T13:18:21.309Z,31.33
2022-11-16T13:20:56.065Z,30.30
2022-11-16T13:23:38.330Z,30.33
2022-11-16T13:26:19.335Z,32.95
2022-11-16T13:28:59.187Z,28.05
2022-11-16T13:31:56.323Z,29.63
2022-11-16T13:34:26.615Z,27.88
2022-11-16T13:36:53.117Z,29.48
2022-11-16T13:39:22.892Z,30.05
2022-11-16T13:42:07.310Z,27.20
2022-11-16T13:44:34.594Z,28.17
2022-11-16T13:47:04.825Z,29.23
2022-11-16T13:49:50.224Z,28.58
2022-11-16T13:52:23.792Z,28.58
2022-11-16T13:54:55.380Z,28.33
2022-11-16T13:57:34.389Z,28.15
2022-11-16T14:00:00.717Z,28.52
2022-11-16T14:02:42.241Z,27.27
2022-11-16T14:05:16.220Z,26.92
2022-11-16T14:07:51.733Z,29.13
2022-11-16T14:10:33.104Z,26.73
2022-11-16T14:13:01.071Z,26.13
2022-11-16T14:15:38.602Z,26.33
2022-11-16T14:18:08.563Z,26.15
2022-11-16T14:20:37.754Z,26.05
2022-11-16T14:23:14.129Z,24.60
2022-11-16T14:25:49.077Z,25.25
2022-11-16T14:28:24.263Z,24.63
2022-11-16T14:30:53.659Z,25.13
2022-11-16T14:33:30.527Z,23.65
2022-11-16T14:35:57.419Z,24.77
2022-11-16T14:38:32.231Z,23.90
2022-11-16T14:41:01.261Z,24.38
2022-11-16T14:43:33.099Z,23.85
2022-11-16T14:46:09.354Z,23.38
2022-11-16T14:48:44.132Z,24.33
2022-11-16T14:51:15.116Z,23.70
2022-11-16T14:53:50.444Z,23.15
2022-11-16T14:56:18.230Z,21.98
2022-11-16T14:58:52.942Z,24.25
2022-11-16T15:01:22.559Z,22.80
2022-11-16T15:04:03.912Z,22.27
2022-11-16T15:06:43.577Z,22.85
2022-11-16T15:09:18.086Z,23.25
2022-11-16T15:12:06.551Z,22.80
2022-11-16T15:14:37.163Z,24.15
2022-11-16T15:17:03.615Z,22.98
2022-11-16T15:19:30.476Z,23.52
2022-11-16T15:21:59.687Z,24.98
2022-11-16T15:24:34.435Z,23.35
2022-11-16T15:27:26.247Z,23.58
2022-11-16T15:29:52.659Z,23.23
2022-11-16T15:32:19.088Z,24.67
2022-11-16T15:34:53.069Z,24.35
2022-11-16T15:37:30.142Z,26.30
2022-11-16T15:40:02.481Z,25.95
2022-11-16T15:42:29.340Z,25.67
2022-11-16T15:44:56.012Z,27.42
2022-11-16T15:47:23.542Z,27.27
2022-11-16T15:49:52.870Z,26.58
2022-11-16T15:52:45.461Z,29.20
2022-11-16T15:55:33.013Z,28.45
2022-11-16T15:57:59.422Z,26.92
2022-11-16T16:00:26.953Z,28.63
2022-11-16T16:02:59.564Z,27.95
2022-11-16T16:05:37.762Z,28.75
2022-11-16T16:08:05.652Z,27.23
2022-11-16T16:10:32.145Z,28.17
2022-11-16T16:13:00.990Z,27.92
2022-11-16T16:15:30.036Z,28.30
2022-11-16T16:17:58.668Z,28.50
2022-11-16T16:20:31.762Z,26.58
2022-11-16T16:23:11.226Z,27.98
2022-11-16T16:25:38.134Z,24.88
2022-11-16T16:28:04.694Z,25.83
2022-11-16T16:30:33.154Z,26.73
2022-11-16T16:32:59.673Z,24.67
2022-11-16T16:35:26.491Z,24.00
2022-11-16T16:38:01.216Z,25.15
2022-11-16T16:40:28.723Z,24.65
2022-11-16T16:42:56.264Z,23.80
2022-11-16T16:45:39.861Z,23.65
2022-11-16T16:48:06.320Z,22.40
2022-11-16T16:50:32.792Z,22.00
2022-11-16T16:52:59.182Z,21.80
2022-11-16T16:55:25.936Z,22.10
2022-11-16T16:57:53.933Z,21.35
2022-11-16T17:00:20.358Z,21.00
2022-11-16T17:02:46.743Z,20.85
2022-11-16T17:05:13.158Z,21.55
2022-11-16T17:07:39.720Z,21.25
2022-11-16T17:10:09.681Z,21.33
2022-11-16T17:12:36.098Z,21.75
2022-11-16T17:15:02.686Z,21.38
2022-11-16T17:17:29.066Z,20.08
2022-11-16T17:19:55.690Z,20.95
2022-11-16T17:22:22.634Z,21.50
2022-11-16T17:24:49.253Z,21.23
2022-11-16T17:27:15.648Z,20.85
2022-11-16T17:29:42.036Z,19.75
2022-11-16T17:32:08.444Z,20.35
2022-11-16T17:34:34.914Z,19.33
2022-11-16T17:37:01.398Z,17.88
2022-11-16T17:39:27.855Z,17.35
2022-11-16T17:41:54.272Z,18.38
2022-11-16T17:44:22.075Z,18.05
2022-11-16T17:46:48.608Z,18.75
2022-11-16T17:49:15.053Z,16.02
2022-11-16T17:51:41.505Z,18.65
2022-11-16T17:54:07.915Z,15.65
2022-11-16T17:56:34.332Z,16.58
2022-11-16T17:59:00.852Z,16.92
2022-11-16T18:01:28.404Z,16.63
2022-11-16T18:03:55.137Z,18.02
2022-11-16T18:06:23.425Z,17.98
2022-11-16T18:08:49.822Z,16.80
2022-11-16T18:11:20.034Z,17.95
2022-11-16T18:13:47.223Z,17.50
2022-11-16T18:16:16.975Z,17.30
2022-11-16T18:18:44.542Z,20.17
2022-11-16T18:21:17.224Z,17.15
2022-11-16T18:23:46.700Z,18.08
2022-11-16T18:26:16.572Z,18.27
2022-11-16T18:28:46.517Z,15.70
2022-11-16T18:31:17.914Z,17.70
2022-11-16T18:33:44.729Z,17.63
2022-11-16T18:36:12.338Z,16.75
2022-11-16T18:38:39.247Z,16.85
2022-11-16T18:41:06.832Z,16.50
2022-11-16T18:43:34.640Z,14.85
2022-11-16T18:46:01.318Z,15.63
2022-11-16T18:48:27.852Z,14.02
2022-11-16T18:50:58.311Z,15.93
2022-11-16T18:53:25.118Z,14.95
2022-11-16T18:55:57.483Z,15.75
2022-11-16T18:58:49.366Z,16.15
2022-11-16T19:01:13.614Z,14.80
2022-11-16T19:03:40.139Z,14.52
2022-11-16T19:06:08.567Z,16.58
2022-11-16T19:08:36.653Z,15.45
2022-11-16T19:11:11.539Z,14.77
2022-11-16T19:13:38.900Z,15.05
2022-11-16T19:16:06.160Z,15.50
2022-11-16T19:18:32.652Z,14.57
2022-11-16T19:21:10.137Z,14.93
2022-11-16T19:23:42.782Z,14.30
2022-11-16T19:26:10.220Z,14.10
2022-11-16T19:28:38.177Z,15.13
2022-11-16T19:31:25.727Z,14.40
2022-11-16T19:33:57.070Z,13.57
2022-11-16T19:36:25.278Z,13.57
2022-11-16T19:38:52.564Z,14.18
2022-11-16T19:41:22.900Z,13.98
2022-11-16T19:43:57.324Z,13.18
2022-11-16T19:46:24.890Z,14.52
2022-11-16T19:48:51.865Z,14.30
2022-11-16T19:51:24.115Z,13.32
2022-11-16T19:53:53.745Z,14.88
2022-11-16T19:56:22.395Z,13.98
2022-11-16T19:58:50.028Z,12.95
2022-11-16T20:01:26.224Z,13.73
2022-11-16T20:03:53.192Z,13.68
2022-11-16T20:06:22.507Z,13.32
2022-11-16T20:08:54.256Z,12.60
2022-11-16T20:11:23.364Z,14.63
2022-11-16T20:13:51.808Z,13.80
2022-11-16T20:16:23.550Z,14.20
2022-11-16T20:18:51.791Z,12.15
2022-11-16T20:21:26.425Z,12.43
2022-11-16T20:23:53.855Z,11.73
2022-11-16T20:26:21.381Z,12.43
2022-11-16T20:28:50.994Z,11.45
2022-11-16T20:31:19.139Z,12.35
2022-11-16T20:33:53.370Z,11.48
2022-11-16T20:36:20.691Z,11.93
2022-11-16T20:38:47.088Z,11.20
2022-11-16T20:41:16.376Z,10.90
2022-11-16T20:43:43.725Z,11.25
2022-11-16T20:46:15.090Z,11.93
2022-11-16T20:48:44.837Z,12.43
2022-11-16T20:51:19.335Z,13.10
2022-11-16T20:53:47.700Z,11.98
2022-11-16T20:56:15.636Z,12.20
2022-11-16T20:58:42.494Z,12.25
2022-11-16T21:01:12.651Z,11.68
2022-11-16T21:03:39.846Z,13.40
2022-11-16T21:06:09.595Z,13.23
2022-11-16T21:08:37.655Z,12.25
2022-11-16T21:11:15.702Z,11.55
2022-11-16T21:14:03.058Z,12.20
2022-11-16T21:16:29.894Z,13.65
2022-11-16T21:18:56.331Z,13.50
2022-11-16T21:21:22.912Z,14.07
2022-11-16T21:23:52.331Z,14.60
2022-11-16T21:26:21.625Z,14.07
2022-11-16T21:28:48.131Z,13.80
2022-11-16T21:31:20.344Z,14.30
2022-11-16T21:33:47.431Z,14.10
2022-11-16T21:36:16.560Z,14.38
2022-11-16T21:38:43.017Z,13.95
2022-11-16T21:41:14.051Z,15.32
2022-11-16T21:46:10.628Z,14.35
2022-11-16T21:48:37.428Z,14.15
2022-11-16T21:51:06.101Z,14.70
2022-11-16T21:53:33.513Z,13.77
2022-11-16T21:56:00.365Z,14.63
2022-11-16T21:58:27.278Z,13.10
2022-11-16T22:00:55.823Z,13.93
2022-11-16T22:03:24.424Z,13.27
2022-11-16T22:06:16.467Z,13.50
2022-11-16T22:08:43.691Z,14.35
2022-11-16T22:11:10.962Z,14.35
2022-11-16T22:13:38.459Z,14.13
2022-11-16T22:16:09.561Z,14.70
2022-11-16T22:18:36.744Z,15.60
2022-11-16T22:21:03.889Z,14.88
2022-11-16T22:23:30.964Z,14.98
2022-11-16T22:26:05.776Z,14.88
2022-11-16T22:28:33.177Z,14.15
2022-11-16T22:31:04.955Z,13.82
2022-11-16T22:33:32.327Z,14.18
2022-11-16T22:35:59.143Z,13.20
2022-11-16T22:38:26.038Z,13.13
2022-11-16T22:40:53.776Z,12.70
2022-11-16T22:43:21.578Z,12.85
2022-11-16T22:45:48.047Z,12.65
2022-11-16T22:48:14.827Z,12.32
2022-11-16T22:50:42.064Z,12.80
2022-11-16T22:53:09.462Z,11.40
2022-11-16T22:55:37.676Z,11.32
2022-11-16T22:58:05.414Z,12.95
2022-11-16T23:00:34.202Z,12.10
2022-11-16T23:03:04.228Z,12.55
2022-11-16T23:05:30.650Z,12.63
2022-11-16T23:07:57.279Z,12.80
2022-11-16T23:10:23.676Z,11.95
2022-11-16T23:13:08.494Z,12.60
2022-11-16T23:15:49.941Z,12.30
2022-11-16T23:18:16.522Z,11.75
2022-11-16T23:21:01.392Z,12.70
2022-11-16T23:23:46.289Z,13.02
2022-11-16T23:26:41.193Z,12.98
2022-11-16T23:29:09.605Z,12.65
2022-11-16T23:31:37.079Z,11.93
2022-11-16T23:34:04.223Z,11.85
2022-11-16T23:36:30.635Z,13.27
2022-11-16T23:38:57.013Z,11.82
2022-11-16T23:41:41.915Z,11.68
2022-11-16T23:44:08.311Z,11.90
2022-11-16T23:46:34.696Z,14.30
2022-11-16T23:49:01.437Z,12.95
2022-11-16T23:51:27.889Z,13.73
2022-11-16T23:53:54.709Z,13.65
2022-11-16T23:56:21.650Z,14.13
2022-11-16T23:58:48.287Z,16.27
